createdAt,value
2017-04-23T00:00:13.845Z,1017.55
2017-04-23T00:01:08.380Z,1017.52
2017-04-23T00:02:01.854Z,1017.55
2017-04-23T00:02:55.798Z,1017.51
2017-04-23T00:03:44.759Z,1017.49
2017-04-23T00:04:33.273Z,1017.47
2017-04-23T00:05:27.792Z,1017.55
2017-04-23T00:06:17.114Z,1017.53
2017-04-23T00:07:09.818Z,1017.50
2017-04-23T00:08:04.804Z,1017.55
2017-04-23T00:09:05.292Z,1017.53
2017-04-23T00:09:58.824Z,1017.55
2017-04-23T00:10:52.754Z,1017.54
2017-04-23T00:11:40.723Z,1017.49
2017-04-23T00:12:35.674Z,1017.54
2017-04-23T00:13:24.155Z,1017.51
2017-04-23T00:14:11.644Z,1017.48
2017-04-23T00:14:59.646Z,1017.48
2017-04-23T00:15:47.591Z,1017.50
2017-04-23T00:16:35.571Z,1017.49
2017-04-23T00:17:30.542Z,1017.48
2017-04-23T00:18:18.057Z,1017.49
2017-04-23T00:19:07.001Z,1017.47
2017-04-23T00:20:06.485Z,1017.48
2017-04-23T00:21:10.427Z,1017.44
2017-04-23T00:21:37.455Z,1017.46
2017-04-23T00:22:25.943Z,1017.42
2017-04-23T00:23:25.462Z,1017.47
2017-04-23T00:24:25.378Z,1017.43
2017-04-23T00:25:19.321Z,1017.42
2017-04-23T00:26:13.248Z,1017.40
2017-04-23T00:27:07.261Z,1017.44
2017-04-23T00:27:55.319Z,1017.41
2017-04-23T00:28:55.142Z,1017.42
2017-04-23T00:29:50.033Z,1017.41
2017-04-23T00:30:43.608Z,1017.37
2017-04-23T00:31:38.559Z,1017.37
2017-04-23T00:32:27.038Z,1017.37
2017-04-23T00:33:15.566Z,1017.35
2017-04-23T00:34:10.107Z,1017.40
2017-04-23T00:34:58.643Z,1017.34
2017-04-23T00:35:53.085Z,1017.35
2017-04-23T00:36:42.106Z,1017.38
2017-04-23T00:37:41.134Z,1017.35
2017-04-23T00:38:35.115Z,1017.35
2017-04-23T00:39:30.077Z,1017.35
2017-04-23T00:40:24.547Z,1017.34
2017-04-23T00:41:24.019Z,1017.33
2017-04-23T00:42:18.061Z,1017.34
2017-04-23T00:43:11.977Z,1017.32
2017-04-23T00:44:05.923Z,1017.32
2017-04-23T00:44:54.849Z,1017.32
2017-04-23T00:45:42.401Z,1017.32
2017-04-23T00:46:37.356Z,1017.27
2017-04-23T00:47:24.886Z,1017.30
2017-04-23T00:48:19.837Z,1017.30
2017-04-23T00:49:13.337Z,1017.30
2017-04-23T00:50:01.295Z,1017.28
2017-04-23T00:50:49.246Z,1017.33
2017-04-23T00:51:43.159Z,1017.34
2017-04-23T00:52:31.139Z,1017.32
2017-04-23T00:53:31.105Z,1017.30
2017-04-23T00:54:19.017Z,1017.28
2017-04-23T00:55:13.029Z,1017.29
2017-04-23T00:56:07.025Z,1017.28
2017-04-23T00:56:54.953Z,1017.31
2017-04-23T00:57:48.853Z,1017.32
2017-04-23T00:58:43.828Z,1017.38
2017-04-23T00:59:37.383Z,1017.36
2017-04-23T01:00:26.255Z,1017.34
2017-04-23T01:01:13.746Z,1017.36
2017-04-23T01:02:07.749Z,1017.33
2017-04-23T01:02:50.641Z,1017.31
2017-04-23T01:03:44.214Z,1017.33
2017-04-23T01:04:33.170Z,1017.31
2017-04-23T01:05:26.735Z,1017.30
2017-04-23T01:06:14.661Z,1017.34
2017-04-23T01:07:03.630Z,1017.28
2017-04-23T01:07:52.126Z,1017.32
2017-04-23T01:08:45.684Z,1017.32
2017-04-23T01:09:34.621Z,1017.30
2017-04-23T01:10:23.091Z,1017.29
2017-04-23T01:11:17.663Z,1017.31
2017-04-23T01:12:11.136Z,1017.31
2017-04-23T01:12:59.096Z,1017.32
2017-04-23T01:13:53.063Z,1017.33
2017-04-23T01:14:41.011Z,1017.33
2017-04-23T01:15:34.911Z,1017.28
2017-04-23T01:16:22.890Z,1017.30
2017-04-23T01:17:05.818Z,1017.30
2017-04-23T01:17:53.386Z,1017.32
2017-04-23T01:18:48.299Z,1017.34
2017-04-23T01:19:36.828Z,1017.34
2017-04-23T01:20:25.356Z,1017.33
2017-04-23T01:21:18.893Z,1017.32
2017-04-23T01:22:13.821Z,1017.32
2017-04-23T01:23:07.344Z,1017.31
2017-04-23T01:23:55.317Z,1017.29
2017-04-23T01:24:49.224Z,1017.35
2017-04-23T01:25:43.215Z,1017.33
2017-04-23T01:26:32.115Z,1017.33
2017-04-23T01:27:32.673Z,1017.31
2017-04-23T01:28:27.161Z,1017.38
2017-04-23T01:29:15.690Z,1017.32
2017-04-23T01:30:04.218Z,1017.35
2017-04-23T01:30:52.725Z,1017.34
2017-04-23T01:31:41.236Z,1017.34
2017-04-23T01:32:34.753Z,1017.38
2017-04-23T01:33:28.748Z,1017.41
2017-04-23T01:34:16.650Z,1017.39
2017-04-23T01:35:05.659Z,1017.40
2017-04-23T01:35:54.124Z,1017.38
2017-04-23T01:36:47.647Z,1017.38
2017-04-23T01:37:36.630Z,1017.39
2017-04-23T01:38:36.091Z,1017.40
2017-04-23T01:39:31.061Z,1017.35
2017-04-23T01:40:24.609Z,1017.32
2017-04-23T01:41:19.000Z,1017.36
2017-04-23T01:42:06.517Z,1017.37
2017-04-23T01:43:01.419Z,1017.39
2017-04-23T01:43:48.940Z,1017.35
2017-04-23T01:44:36.946Z,1017.35
2017-04-23T01:45:24.950Z,1017.41
2017-04-23T01:46:13.843Z,1017.34
2017-04-23T01:47:07.351Z,1017.37
2017-04-23T01:48:01.286Z,1017.36
2017-04-23T01:48:49.247Z,1017.39
2017-04-23T01:49:37.279Z,1017.34
2017-04-23T01:50:31.158Z,1017.32
2017-04-23T01:51:26.076Z,1017.31
2017-04-23T01:52:13.623Z,1017.35
2017-04-23T01:53:13.521Z,1017.33
2017-04-23T01:54:01.497Z,1017.34
2017-04-23T01:55:01.488Z,1017.29
2017-04-23T01:55:56.438Z,1017.36
2017-04-23T01:56:49.929Z,1017.32
2017-04-23T01:57:43.903Z,1017.31
2017-04-23T01:58:31.830Z,1017.33
2017-04-23T01:59:20.799Z,1017.33
2017-04-23T02:00:08.281Z,1017.32
2017-04-23T02:01:02.247Z,1017.33
2017-04-23T02:01:45.216Z,1017.32
2017-04-23T02:02:44.720Z,1017.33
2017-04-23T02:03:38.665Z,1017.34
2017-04-23T02:04:33.643Z,1017.31
2017-04-23T02:05:27.189Z,1017.35
2017-04-23T02:06:15.116Z,1017.33
2017-04-23T02:07:04.049Z,1017.29
2017-04-23T02:07:57.530Z,1017.35
2017-04-23T02:08:45.534Z,1017.34
2017-04-23T02:09:39.501Z,1017.28
2017-04-23T02:10:28.534Z,1017.34
2017-04-23T02:11:16.963Z,1017.31
2017-04-23T02:12:10.464Z,1017.31
2017-04-23T02:12:58.477Z,1017.34
2017-04-23T02:13:52.393Z,1017.34
2017-04-23T02:14:40.310Z,1017.37
2017-04-23T02:15:40.270Z,1017.35
2017-04-23T02:16:28.233Z,1017.30
2017-04-23T02:17:22.233Z,1017.32
2017-04-23T02:18:22.099Z,1017.28
2017-04-23T02:19:11.187Z,1017.33
2017-04-23T02:20:05.009Z,1017.37
2017-04-23T02:20:53.523Z,1017.36
2017-04-23T02:21:40.997Z,1017.29
2017-04-23T02:22:29.054Z,1017.30
2017-04-23T02:23:18.002Z,1017.34
2017-04-23T02:24:12.516Z,1017.33
2017-04-23T02:25:00.047Z,1017.30
2017-04-23T02:25:54.018Z,1017.28
2017-04-23T02:26:36.960Z,1017.31
2017-04-23T02:27:25.445Z,1017.32
2017-04-23T02:28:19.028Z,1017.32
2017-04-23T02:29:06.928Z,1017.31
2017-04-23T02:29:55.849Z,1017.32
2017-04-23T02:30:49.609Z,1017.33
2017-04-23T02:31:38.359Z,1017.30
2017-04-23T02:32:31.836Z,1017.36
2017-04-23T02:33:19.834Z,1017.31
2017-04-23T02:34:08.743Z,1017.36
2017-04-23T02:34:57.263Z,1017.33
2017-04-23T02:35:44.837Z,1017.33
2017-04-23T02:36:33.737Z,1017.36
2017-04-23T02:37:28.297Z,1017.29
2017-04-23T02:38:27.779Z,1017.31
2017-04-23T02:39:10.726Z,1017.32
2017-04-23T02:39:58.239Z,1017.32
2017-04-23T02:40:52.252Z,1017.32
2017-04-23T02:41:46.189Z,1017.33
2017-04-23T02:42:34.199Z,1017.30
2017-04-23T02:43:28.074Z,1017.27
2017-04-23T02:44:22.027Z,1017.28
2017-04-23T02:45:16.965Z,1017.31
2017-04-23T02:46:10.505Z,1017.32
2017-04-23T02:47:05.443Z,1017.28
2017-04-23T02:47:58.968Z,1017.30
2017-04-23T02:48:47.926Z,1017.32
2017-04-23T02:49:41.393Z,1017.33
2017-04-23T02:50:36.306Z,1017.29
2017-04-23T02:51:30.836Z,1017.30
2017-04-23T02:52:24.403Z,1017.28
2017-04-23T02:53:07.335Z,1017.29
2017-04-23T02:54:00.853Z,1017.35
2017-04-23T02:54:49.851Z,1017.30
2017-04-23T02:55:43.346Z,1017.34
2017-04-23T02:56:32.312Z,1017.34
2017-04-23T02:57:25.818Z,1017.34
2017-04-23T02:58:20.781Z,1017.31
2017-04-23T02:59:15.221Z,1017.33
2017-04-23T03:00:08.750Z,1017.33
2017-04-23T03:00:56.734Z,1017.34
2017-04-23T03:01:50.709Z,1017.32
2017-04-23T03:02:38.641Z,1017.37
2017-04-23T03:03:32.621Z,1017.36
2017-04-23T03:04:15.579Z,1017.34
2017-04-23T03:05:15.035Z,1017.35
2017-04-23T03:06:15.019Z,1017.37
2017-04-23T03:07:09.970Z,1017.38
2017-04-23T03:08:09.464Z,1017.40
2017-04-23T03:09:09.402Z,1017.40
2017-04-23T03:09:57.363Z,1017.39
2017-04-23T03:10:46.315Z,1017.43
2017-04-23T03:11:34.847Z,1017.43
2017-04-23T03:12:28.337Z,1017.41
2017-04-23T03:13:11.343Z,1017.43
2017-04-23T03:13:59.814Z,1017.38
2017-04-23T03:14:53.461Z,1017.44
2017-04-23T03:15:42.311Z,1017.44
2017-04-23T03:16:30.825Z,1017.45
2017-04-23T03:17:19.325Z,1017.40
2017-04-23T03:18:13.833Z,1017.38
2017-04-23T03:19:07.320Z,1017.43
2017-04-23T03:19:55.344Z,1017.42
2017-04-23T03:20:44.244Z,1017.45
2017-04-23T03:21:32.770Z,1017.44
2017-04-23T03:22:26.290Z,1017.44
2017-04-23T03:23:20.261Z,1017.47
2017-04-23T03:24:15.152Z,1017.45
2017-04-23T03:25:08.722Z,1017.44
2017-04-23T03:26:02.924Z,1017.47
2017-04-23T03:26:51.560Z,1017.45
2017-04-23T03:27:46.145Z,1017.43
2017-04-23T03:28:39.627Z,1017.43
2017-04-23T03:29:33.610Z,1017.44
2017-04-23T03:30:22.554Z,1017.42
2017-04-23T03:31:17.038Z,1017.45
2017-04-23T03:32:11.577Z,1017.44
2017-04-23T03:33:00.072Z,1017.43
2017-04-23T03:33:48.567Z,1017.46
2017-04-23T03:34:42.121Z,1017.50
2017-04-23T03:35:30.060Z,1017.46
2017-04-23T03:36:23.996Z,1017.47
2017-04-23T03:37:17.949Z,1017.46
2017-04-23T03:38:11.910Z,1017.48
2017-04-23T03:39:05.838Z,1017.46
2017-04-23T03:39:59.830Z,1017.44
2017-04-23T03:40:48.815Z,1017.45
2017-04-23T03:41:42.292Z,1017.45
2017-04-23T03:42:36.259Z,1017.46
2017-04-23T03:43:24.158Z,1017.44
2017-04-23T03:44:19.124Z,1017.42
2017-04-23T03:45:13.640Z,1017.42
2017-04-23T03:46:02.281Z,1017.41
2017-04-23T03:46:49.644Z,1017.45
2017-04-23T03:47:37.620Z,1017.43
2017-04-23T03:48:20.642Z,1017.41
2017-04-23T03:49:21.136Z,1017.40
2017-04-23T03:50:09.666Z,1017.48
2017-04-23T03:50:58.150Z,1017.45
2017-04-23T03:51:51.720Z,1017.47
2017-04-23T03:52:34.660Z,1017.41
2017-04-23T03:53:23.187Z,1017.45
2017-04-23T03:54:16.656Z,1017.43
2017-04-23T03:54:59.614Z,1017.47
2017-04-23T03:55:47.148Z,1017.46
2017-04-23T03:56:36.145Z,1017.43
2017-04-23T03:57:29.659Z,1017.47
2017-04-23T03:58:23.547Z,1017.43
2017-04-23T03:59:12.568Z,1017.47
2017-04-23T04:00:01.051Z,1017.47
2017-04-23T04:01:00.532Z,1017.44
2017-04-23T04:01:54.516Z,1017.47
2017-04-23T04:02:43.490Z,1017.50
2017-04-23T04:03:30.960Z,1017.52
2017-04-23T04:04:25.928Z,1017.50
2017-04-23T04:05:19.423Z,1017.53
2017-04-23T04:06:14.429Z,1017.52
2017-04-23T04:07:07.941Z,1017.52
2017-04-23T04:08:01.852Z,1017.56
2017-04-23T04:08:49.837Z,1017.52
2017-04-23T04:09:38.749Z,1017.53
2017-04-23T04:10:33.251Z,1017.58
2017-04-23T04:11:20.792Z,1017.54
2017-04-23T04:12:21.724Z,1017.55
2017-04-23T04:13:09.257Z,1017.53
2017-04-23T04:13:58.231Z,1017.60
2017-04-23T04:14:57.736Z,1017.55
2017-04-23T04:15:45.696Z,1017.55
2017-04-23T04:16:45.605Z,1017.57
2017-04-23T04:17:33.558Z,1017.57
2017-04-23T04:18:22.497Z,1017.55
2017-04-23T04:19:10.037Z,1017.58
2017-04-23T04:20:04.010Z,1017.53
2017-04-23T04:20:57.923Z,1017.58
2017-04-23T04:21:45.908Z,1017.53
2017-04-23T04:22:40.834Z,1017.55
2017-04-23T04:23:34.370Z,1017.57
2017-04-23T04:24:23.388Z,1017.53
2017-04-23T04:25:11.858Z,1017.54
2017-04-23T04:25:59.345Z,1017.54
2017-04-23T04:26:47.349Z,1017.52
2017-04-23T04:27:35.310Z,1017.51
2017-04-23T04:28:35.236Z,1017.52
2017-04-23T04:29:29.160Z,1017.49
2017-04-23T04:30:18.121Z,1017.51
2017-04-23T04:31:06.610Z,1017.56
2017-04-23T04:31:55.163Z,1017.53
2017-04-23T04:32:49.677Z,1017.54
2017-04-23T04:33:43.245Z,1017.56
2017-04-23T04:34:37.165Z,1017.53
2017-04-23T04:35:26.085Z,1017.58
2017-04-23T04:36:13.590Z,1017.57
2017-04-23T04:37:07.578Z,1017.58
2017-04-23T04:37:55.545Z,1017.57
2017-04-23T04:38:44.501Z,1017.58
2017-04-23T04:39:38.019Z,1017.60
2017-04-23T04:40:31.966Z,1017.63
2017-04-23T04:41:20.903Z,1017.64
2017-04-23T04:42:14.440Z,1017.62
2017-04-23T04:43:08.336Z,1017.64
2017-04-23T04:43:57.328Z,1017.59
2017-04-23T04:44:57.803Z,1017.57
2017-04-23T04:45:51.336Z,1017.62
2017-04-23T04:46:39.289Z,1017.61
2017-04-23T04:47:39.246Z,1017.68
2017-04-23T04:48:27.166Z,1017.66
2017-04-23T04:49:10.321Z,1017.71
2017-04-23T04:49:57.648Z,1017.69
2017-04-23T04:50:46.586Z,1017.72
2017-04-23T04:51:34.189Z,1017.76
2017-04-23T04:52:22.123Z,1017.71
2017-04-23T04:53:17.056Z,1017.73
2017-04-23T04:54:10.604Z,1017.73
2017-04-23T04:54:59.532Z,1017.72
2017-04-23T04:55:53.058Z,1017.76
2017-04-23T04:56:41.036Z,1017.74
2017-04-23T04:57:29.971Z,1017.73
2017-04-23T04:58:23.494Z,1017.73
2017-04-23T04:59:17.416Z,1017.73
2017-04-23T05:00:12.350Z,1017.76
2017-04-23T05:01:05.916Z,1017.77
2017-04-23T05:01:48.857Z,1017.80
2017-04-23T05:02:42.376Z,1017.78
2017-04-23T05:03:30.331Z,1017.81
2017-04-23T05:04:18.273Z,1017.78
2017-04-23T05:05:18.211Z,1017.78
2017-04-23T05:06:07.272Z,1017.86
2017-04-23T05:06:55.691Z,1017.83
2017-04-23T05:07:50.232Z,1017.82
2017-04-23T05:08:44.743Z,1017.85
2017-04-23T05:09:32.219Z,1017.83
2017-04-23T05:10:32.220Z,1017.88
2017-04-23T05:11:21.208Z,1017.86
2017-04-23T05:12:09.912Z,1017.87
2017-04-23T05:13:03.196Z,1017.83
2017-04-23T05:13:52.146Z,1017.87
2017-04-23T05:14:39.646Z,1017.86
2017-04-23T05:15:28.595Z,1017.83
2017-04-23T05:16:17.128Z,1017.84
2017-04-23T05:17:11.654Z,1017.79
2017-04-23T05:18:05.201Z,1017.83
2017-04-23T05:19:00.152Z,1017.86
2017-04-23T05:19:48.686Z,1017.92
2017-04-23T05:20:42.111Z,1017.87
2017-04-23T05:21:31.150Z,1017.87
2017-04-23T05:22:18.664Z,1017.89
2017-04-23T05:23:07.601Z,1017.85
2017-04-23T05:23:56.103Z,1017.89
2017-04-23T05:24:44.644Z,1017.88
2017-04-23T05:25:44.102Z,1017.88
2017-04-23T05:26:38.121Z,1017.86
2017-04-23T05:27:32.053Z,1017.83
2017-04-23T05:28:15.036Z,1017.88
2017-04-23T05:29:03.526Z,1017.90
2017-04-23T05:29:58.052Z,1017.93
2017-04-23T05:30:45.541Z,1017.93
2017-04-23T05:31:34.561Z,1017.91
2017-04-23T05:32:29.077Z,1017.89
2017-04-23T05:33:22.610Z,1017.92
2017-04-23T05:34:16.530Z,1017.87
2017-04-23T05:35:05.529Z,1017.90
2017-04-23T05:35:59.024Z,1017.92
2017-04-23T05:36:46.983Z,1017.94
2017-04-23T05:37:40.914Z,1017.97
2017-04-23T05:38:28.942Z,1017.91
2017-04-23T05:39:28.838Z,1017.96
2017-04-23T05:40:23.836Z,1017.94
2017-04-23T05:41:17.292Z,1017.97
2017-04-23T05:42:11.270Z,1017.99
2017-04-23T05:43:00.228Z,1017.97
2017-04-23T05:43:48.762Z,1017.95
2017-04-23T05:44:36.290Z,1017.95
2017-04-23T05:45:36.248Z,1018.01
2017-04-23T05:46:25.144Z,1018.04
2017-04-23T05:47:12.633Z,1017.99
2017-04-23T05:48:08.110Z,1017.99
2017-04-23T05:48:56.191Z,1018.02
2017-04-23T05:49:43.670Z,1018.02
2017-04-23T05:50:32.674Z,1018.05
2017-04-23T05:51:20.129Z,1018.06
2017-04-23T05:52:14.120Z,1018.00
2017-04-23T05:53:08.046Z,1018.03
2017-04-23T05:54:02.081Z,1018.07
2017-04-23T05:54:51.050Z,1018.05
2017-04-23T05:55:45.478Z,1018.10
2017-04-23T05:56:39.024Z,1018.09
2017-04-23T05:57:28.018Z,1018.14
2017-04-23T05:58:22.533Z,1018.15
2017-04-23T05:59:16.040Z,1018.10
2017-04-23T06:00:04.023Z,1018.17
2017-04-23T06:00:53.026Z,1018.15
2017-04-23T06:01:41.777Z,1018.17
2017-04-23T06:02:29.131Z,1018.16
2017-04-23T06:03:17.945Z,1018.11
2017-04-23T06:04:05.422Z,1018.19
2017-04-23T06:04:59.458Z,1018.20
2017-04-23T06:05:53.418Z,1018.22
2017-04-23T06:06:42.357Z,1018.24
2017-04-23T06:07:29.868Z,1018.19
2017-04-23T06:08:23.832Z,1018.18
2017-04-23T06:09:17.778Z,1018.12
2017-04-23T06:10:05.915Z,1018.12
2017-04-23T06:10:59.695Z,1018.15
2017-04-23T06:11:47.676Z,1018.12
2017-04-23T06:12:41.624Z,1018.11
2017-04-23T06:13:29.538Z,1018.15
2017-04-23T06:14:23.572Z,1018.18
2017-04-23T06:15:06.470Z,1018.20
2017-04-23T06:15:55.021Z,1018.17
2017-04-23T06:16:43.546Z,1018.17
2017-04-23T06:17:38.044Z,1018.18
2017-04-23T06:18:32.597Z,1018.11
2017-04-23T06:19:27.129Z,1018.16
2017-04-23T06:20:20.563Z,1018.08
2017-04-23T06:21:03.579Z,1018.10
2017-04-23T06:21:52.114Z,1018.03
2017-04-23T06:22:39.636Z,1018.06
2017-04-23T06:23:34.627Z,1018.07
2017-04-23T06:24:28.156Z,1018.07
2017-04-23T06:25:17.080Z,1018.14
2017-04-23T06:26:05.736Z,1018.14
2017-04-23T06:26:59.201Z,1018.18
2017-04-23T06:27:54.065Z,1018.20
2017-04-23T06:28:48.603Z,1018.13
2017-04-23T06:29:42.103Z,1018.09
2017-04-23T06:30:30.069Z,1018.01
2017-04-23T06:31:18.037Z,1018.03
2017-04-23T06:32:12.026Z,1018.00
2017-04-23T06:33:06.449Z,1018.04
2017-04-23T06:33:58.931Z,1018.04
2017-04-23T06:34:36.447Z,1018.14
2017-04-23T06:35:25.410Z,1018.16
2017-04-23T06:36:13.968Z,1018.11
2017-04-23T06:37:08.472Z,1018.08
2017-04-23T06:37:56.964Z,1018.11
2017-04-23T06:38:45.535Z,1018.11
2017-04-23T06:39:33.015Z,1018.08
2017-04-23T06:40:22.019Z,1018.16
2017-04-23T06:41:10.744Z,1018.18
2017-04-23T06:41:59.045Z,1018.16
2017-04-23T06:42:52.530Z,1018.15
2017-04-23T06:43:40.550Z,1018.22
2017-04-23T06:44:28.552Z,1018.19
2017-04-23T06:45:17.439Z,1018.20
2017-04-23T06:46:05.053Z,1018.11
2017-04-23T06:46:53.952Z,1018.15
2017-04-23T06:47:47.477Z,1018.23
2017-04-23T06:48:35.427Z,1018.17
2017-04-23T06:49:23.727Z,1018.22
2017-04-23T06:50:17.321Z,1018.19
2017-04-23T06:51:00.373Z,1018.21
2017-04-23T06:51:47.858Z,1018.16
2017-04-23T06:52:35.819Z,1018.14
2017-04-23T06:53:23.813Z,1018.21
2017-04-23T06:54:11.732Z,1018.25
2017-04-23T06:55:06.028Z,1018.33
2017-04-23T06:55:59.674Z,1018.34
2017-04-23T06:56:53.604Z,1018.33
2017-04-23T06:57:42.616Z,1018.38
2017-04-23T06:58:30.106Z,1018.39
2017-04-23T06:59:18.114Z,1018.34
2017-04-23T07:00:06.521Z,1018.37
2017-04-23T07:01:00.038Z,1018.43
2017-04-23T07:01:43.313Z,1018.43
2017-04-23T07:02:30.494Z,1018.42
2017-04-23T07:03:19.445Z,1018.45
2017-04-23T07:04:14.037Z,1018.39
2017-04-23T07:05:08.556Z,1018.43
2017-04-23T07:05:56.045Z,1018.45
2017-04-23T07:06:39.026Z,1018.43
2017-04-23T07:07:32.873Z,1018.42
2017-04-23T07:08:20.561Z,1018.44
2017-04-23T07:09:08.482Z,1018.42
2017-04-23T07:09:57.472Z,1018.44
2017-04-23T07:10:45.943Z,1018.46
2017-04-23T07:11:39.533Z,1018.49
2017-04-23T07:12:33.734Z,1018.56
2017-04-23T07:13:27.440Z,1018.54
2017-04-23T07:14:27.372Z,1018.54
2017-04-23T07:15:15.344Z,1018.58
2017-04-23T07:16:03.276Z,1018.63
2017-04-23T07:16:51.265Z,1018.54
2017-04-23T07:17:40.662Z,1018.55
2017-04-23T07:18:28.745Z,1018.58
2017-04-23T07:19:22.275Z,1018.65
2017-04-23T07:20:11.558Z,1018.62
2017-04-23T07:20:59.758Z,1018.65
2017-04-23T07:21:53.285Z,1018.62
2017-04-23T07:22:42.521Z,1018.60
2017-04-23T07:23:35.749Z,1018.59
2017-04-23T07:24:29.757Z,1018.54
2017-04-23T07:25:12.682Z,1018.60
2017-04-23T07:26:07.291Z,1018.61
2017-04-23T07:26:54.764Z,1018.60
2017-04-23T07:27:44.005Z,1018.61
2017-04-23T07:28:37.306Z,1018.50
2017-04-23T07:29:20.237Z,1018.43
2017-04-23T07:30:07.752Z,1018.41
2017-04-23T07:30:55.747Z,1018.47
2017-04-23T07:31:43.646Z,1018.42
2017-04-23T07:32:32.651Z,1018.62
2017-04-23T07:33:32.260Z,1018.48
2017-04-23T07:34:26.162Z,1018.44
2017-04-23T07:35:15.044Z,1018.45
2017-04-23T07:36:02.609Z,1018.48
2017-04-23T07:36:56.582Z,1018.53
2017-04-23T07:37:39.559Z,1018.55
2017-04-23T07:38:33.064Z,1018.48
2017-04-23T07:39:21.034Z,1018.40
2017-04-23T07:40:15.027Z,1018.38
2017-04-23T07:41:02.934Z,1018.45
2017-04-23T07:41:50.954Z,1018.37
2017-04-23T07:42:45.857Z,1018.34
2017-04-23T07:43:39.439Z,1018.38
2017-04-23T07:44:28.398Z,1018.28
2017-04-23T07:45:21.906Z,1018.36
2017-04-23T07:46:10.880Z,1018.33
2017-04-23T07:47:04.382Z,1018.30
2017-04-23T07:47:58.323Z,1018.37
2017-04-23T07:48:52.354Z,1018.40
2017-04-23T07:49:46.240Z,1018.42
2017-04-23T07:50:35.275Z,1018.36
2017-04-23T07:51:28.758Z,1018.39
2017-04-23T07:52:17.775Z,1018.41
2017-04-23T07:53:06.266Z,1018.41
2017-04-23T07:53:53.848Z,1018.47
2017-04-23T07:54:47.741Z,1018.46
2017-04-23T07:55:35.745Z,1018.42
2017-04-23T07:56:29.688Z,1018.40
2017-04-23T07:57:18.694Z,1018.47
2017-04-23T07:58:06.176Z,1018.46
2017-04-23T07:58:54.162Z,1018.51
2017-04-23T07:59:48.098Z,1018.45
2017-04-23T08:00:36.078Z,1018.49
2017-04-23T08:01:25.046Z,1018.55
2017-04-23T08:02:18.629Z,1018.59
2017-04-23T08:03:19.518Z,1018.73
2017-04-23T08:04:07.144Z,1018.64
2017-04-23T08:05:02.067Z,1018.66
2017-04-23T08:05:55.531Z,1018.67
2017-04-23T08:06:44.583Z,1018.68
2017-04-23T08:07:38.060Z,1018.63
2017-04-23T08:08:32.036Z,1018.47
2017-04-23T08:09:21.040Z,1018.56
2017-04-23T08:10:09.565Z,1018.63
2017-04-23T08:11:03.059Z,1018.67
2017-04-23T08:11:58.074Z,1018.57
2017-04-23T08:12:51.529Z,1018.49
2017-04-23T08:13:46.551Z,1018.61
2017-04-23T08:14:35.087Z,1018.52
2017-04-23T08:15:29.618Z,1018.56
2017-04-23T08:16:18.157Z,1018.60
2017-04-23T08:17:11.634Z,1018.66
2017-04-23T08:18:05.597Z,1018.66
2017-04-23T08:19:00.584Z,1018.75
2017-04-23T08:19:54.182Z,1018.91
2017-04-23T08:20:48.061Z,1018.81
2017-04-23T08:21:37.040Z,1018.72
2017-04-23T08:22:30.586Z,1018.70
2017-04-23T08:23:19.536Z,1018.73
2017-04-23T08:24:08.050Z,1018.69
2017-04-23T08:25:02.650Z,1018.79
2017-04-23T08:25:56.173Z,1018.75
2017-04-23T08:26:45.122Z,1018.79
2017-04-23T08:27:38.669Z,1018.67
2017-04-23T08:28:26.663Z,1018.58
2017-04-23T08:29:14.577Z,1018.60
2017-04-23T08:30:03.553Z,1018.62
2017-04-23T08:31:03.083Z,1018.53
2017-04-23T08:31:51.074Z,1018.55
2017-04-23T08:32:40.059Z,1018.62
2017-04-23T08:33:33.534Z,1018.62
2017-04-23T08:34:22.518Z,1018.58
2017-04-23T08:35:11.062Z,1018.57
2017-04-23T08:35:59.617Z,1018.55
2017-04-23T08:36:54.124Z,1018.60
2017-04-23T08:37:53.640Z,1018.55
2017-04-23T08:38:47.629Z,1018.67
2017-04-23T08:39:41.541Z,1018.65
2017-04-23T08:40:35.507Z,1018.72
2017-04-23T08:41:24.527Z,1018.69
2017-04-23T08:42:13.026Z,1018.56
2017-04-23T08:43:06.559Z,1018.55
2017-04-23T08:44:00.545Z,1018.63
2017-04-23T08:44:49.520Z,1018.69
2017-04-23T08:45:38.049Z,1018.58
2017-04-23T08:46:31.603Z,1018.51
2017-04-23T08:47:20.535Z,1018.43
2017-04-23T08:48:14.179Z,1018.47
2017-04-23T08:49:08.064Z,1018.52
2017-04-23T08:49:56.063Z,1018.48
2017-04-23T08:50:56.019Z,1018.59
2017-04-23T08:51:38.962Z,1018.60
2017-04-23T08:52:26.533Z,1018.67
2017-04-23T08:53:09.464Z,1018.60
2017-04-23T08:54:09.026Z,1018.69
2017-04-23T08:55:02.986Z,1018.74
2017-04-23T08:55:51.929Z,1018.67
2017-04-23T08:56:46.504Z,1018.64
2017-04-23T08:57:40.006Z,1018.51
2017-04-23T08:58:28.973Z,1018.46
2017-04-23T08:59:22.494Z,1018.57
2017-04-23T09:00:10.953Z,1018.56
2017-04-23T09:00:59.438Z,1018.62
2017-04-23T09:01:53.980Z,1018.63
2017-04-23T09:02:53.521Z,1018.52
2017-04-23T09:03:42.444Z,1018.46
2017-04-23T09:04:36.029Z,1018.33
2017-04-23T09:05:35.956Z,1018.48
2017-04-23T09:06:24.897Z,1018.46
2017-04-23T09:07:18.514Z,1018.43
2017-04-23T09:08:06.420Z,1018.44
2017-04-23T09:08:54.402Z,1018.61
2017-04-23T09:09:43.343Z,1018.53
2017-04-23T09:10:36.958Z,1018.64
2017-04-23T09:11:25.852Z,1018.65
2017-04-23T09:12:14.429Z,1018.53
2017-04-23T09:13:13.929Z,1018.52
2017-04-23T09:14:07.949Z,1018.50
2017-04-23T09:14:55.873Z,1018.42
2017-04-23T09:15:45.333Z,1018.33
2017-04-23T09:16:39.345Z,1018.39
2017-04-23T09:17:33.915Z,1018.56
2017-04-23T09:18:22.481Z,1018.54
2017-04-23T09:19:10.000Z,1018.52
2017-04-23T09:20:09.985Z,1018.60
2017-04-23T09:21:03.912Z,1018.51
2017-04-23T09:21:57.871Z,1018.35
2017-04-23T09:22:52.033Z,1018.36
2017-04-23T09:23:45.881Z,1018.42
2017-04-23T09:24:34.821Z,1018.48
2017-04-23T09:25:29.336Z,1018.54
2017-04-23T09:26:22.809Z,1018.46
2017-04-23T09:27:10.823Z,1018.42
2017-04-23T09:28:04.807Z,1018.38
2017-04-23T09:28:58.758Z,1018.44
2017-04-23T09:29:52.726Z,1018.45
2017-04-23T09:30:47.743Z,1018.54
2017-04-23T09:31:41.255Z,1018.53
2017-04-23T09:32:30.211Z,1018.54
2017-04-23T09:33:24.772Z,1018.56
2017-04-23T09:34:18.264Z,1018.57
2017-04-23T09:35:13.227Z,1018.59
2017-04-23T09:36:07.750Z,1018.57
2017-04-23T09:36:55.290Z,1018.55
2017-04-23T09:37:49.280Z,1018.48
2017-04-23T09:38:43.257Z,1018.47
2017-04-23T09:39:37.281Z,1018.52
2017-04-23T09:40:31.153Z,1018.44
2017-04-23T09:41:20.114Z,1018.40
2017-04-23T09:42:08.702Z,1018.36
2017-04-23T09:42:56.186Z,1018.39
2017-04-23T09:43:50.127Z,1018.41
2017-04-23T09:44:39.147Z,1018.54
2017-04-23T09:45:38.638Z,1018.56
2017-04-23T09:46:27.625Z,1018.41
2017-04-23T09:47:16.162Z,1018.42
2017-04-23T09:48:09.647Z,1018.47
2017-04-23T09:48:58.609Z,1018.44
2017-04-23T09:49:46.189Z,1018.59
2017-04-23T09:50:35.112Z,1018.73
2017-04-23T09:51:22.675Z,1018.69
2017-04-23T09:52:17.645Z,1018.64
2017-04-23T09:53:06.138Z,1018.66
2017-04-23T09:53:53.701Z,1018.74
2017-04-23T09:54:41.609Z,1018.69
2017-04-23T09:55:35.738Z,1018.73
2017-04-23T09:56:29.532Z,1018.63
2017-04-23T09:57:17.552Z,1018.71
2017-04-23T09:58:06.494Z,1018.75
2017-04-23T09:59:01.059Z,1018.78
2017-04-23T09:59:49.583Z,1018.70
2017-04-23T10:00:44.510Z,1018.75
2017-04-23T10:01:38.614Z,1018.67
2017-04-23T10:02:26.168Z,1018.66
2017-04-23T10:03:20.094Z,1018.67
2017-04-23T10:04:08.043Z,1018.57
2017-04-23T10:04:56.053Z,1018.56
2017-04-23T10:05:45.495Z,1018.56
2017-04-23T10:06:44.552Z,1018.45
2017-04-23T10:07:32.510Z,1018.45
2017-04-23T10:08:21.428Z,1018.51
2017-04-23T10:09:15.019Z,1018.51
2017-04-23T10:10:08.957Z,1018.55
2017-04-23T10:10:57.081Z,1018.46
2017-04-23T10:11:45.927Z,1018.44
2017-04-23T10:12:33.441Z,1018.46
2017-04-23T10:13:27.410Z,1018.36
2017-04-23T10:14:16.352Z,1018.37
2017-04-23T10:15:09.882Z,1018.39
2017-04-23T10:16:04.898Z,1018.42
2017-04-23T10:16:52.421Z,1018.37
2017-04-23T10:17:40.332Z,1018.33
2017-04-23T10:18:23.372Z,1018.25
2017-04-23T10:19:16.860Z,1018.29
2017-04-23T10:20:10.919Z,1018.37